createdAt,value
2017-11-15T00:00:14.856Z,94.90
2017-11-15T00:02:43.186Z,96.50
2017-11-15T00:05:10.775Z,96.50
2017-11-15T00:07:38.277Z,97.20
2017-11-15T00:10:06.595Z,97.00
2017-11-15T00:12:34.156Z,97.00
2017-11-15T00:15:01.726Z,96.70
2017-11-15T00:17:29.294Z,96.50
2017-11-15T00:19:56.879Z,97.20
2017-11-15T00:22:37.419Z,96.40
2017-11-15T00:25:04.960Z,96.60
2017-11-15T00:27:32.550Z,95.90
2017-11-15T00:30:00.091Z,95.30
2017-11-15T00:32:27.675Z,94.20
2017-11-15T00:34:55.245Z,93.30
2017-11-15T00:37:23.371Z,92.30
2017-11-15T00:39:50.909Z,91.20
2017-11-15T00:42:18.452Z,90.30
2017-11-15T00:44:45.997Z,90.00
2017-11-15T00:47:13.528Z,90.50
2017-11-15T00:49:41.871Z,90.90
2017-11-15T00:52:09.427Z,90.90
2017-11-15T00:54:37.037Z,91.20
2017-11-15T00:57:04.624Z,92.30
2017-11-15T00:59:32.929Z,92.80
2017-11-15T01:02:00.530Z,92.70
2017-11-15T01:04:28.085Z,93.30
2017-11-15T01:06:55.685Z,93.50
2017-11-15T01:09:24.020Z,92.90
2017-11-15T01:11:51.560Z,92.80
2017-11-15T01:14:19.100Z,92.60
2017-11-15T01:16:47.445Z,91.50
2017-11-15T01:19:14.965Z,91.40
2017-11-15T01:21:43.295Z,89.90
2017-11-15T01:24:10.816Z,89.80
2017-11-15T01:26:38.489Z,89.10
2017-11-15T01:29:06.049Z,89.00
2017-11-15T01:31:33.567Z,89.40
2017-11-15T01:34:01.181Z,90.00
2017-11-15T01:36:28.755Z,90.40
2017-11-15T01:38:56.276Z,90.20
2017-11-15T01:41:23.915Z,89.80
2017-11-15T01:43:51.484Z,89.80
2017-11-15T01:46:19.017Z,89.90
2017-11-15T01:48:46.577Z,90.00
2017-11-15T01:51:14.230Z,89.10
2017-11-15T01:53:41.746Z,89.30
2017-11-15T01:56:09.315Z,90.00
2017-11-15T01:58:36.917Z,90.30
2017-11-15T02:01:14.133Z,88.90
2017-11-15T02:03:41.717Z,88.80
2017-11-15T02:06:09.249Z,89.00
2017-11-15T02:08:36.819Z,89.20
2017-11-15T02:11:04.390Z,89.40
2017-11-15T02:13:31.990Z,89.30
2017-11-15T02:15:59.527Z,90.10
2017-11-15T02:18:27.083Z,90.50
2017-11-15T02:20:54.694Z,90.60
2017-11-15T02:23:22.294Z,90.30
2017-11-15T02:25:49.857Z,89.60
2017-11-15T02:28:17.440Z,89.30
2017-11-15T02:30:44.993Z,89.00
2017-11-15T02:33:12.565Z,88.60
2017-11-15T02:35:40.128Z,89.20
2017-11-15T02:38:07.790Z,89.70
2017-11-15T02:40:35.325Z,89.60
2017-11-15T02:43:02.912Z,89.50
2017-11-15T02:45:30.568Z,89.30
2017-11-15T02:47:58.900Z,89.00
2017-11-15T02:50:26.432Z,88.90
2017-11-15T02:52:54.017Z,89.00
2017-11-15T02:55:21.524Z,90.00
2017-11-15T02:57:49.061Z,89.60
2017-11-15T03:00:16.611Z,90.10
2017-11-15T03:02:44.147Z,89.60
2017-11-15T03:05:12.554Z,89.80
2017-11-15T03:07:40.102Z,89.70
2017-11-15T03:10:07.657Z,89.50
2017-11-15T03:12:35.220Z,89.70
2017-11-15T03:15:03.564Z,89.30
2017-11-15T03:17:31.117Z,89.30
2017-11-15T03:19:58.644Z,88.90
2017-11-15T03:22:26.182Z,88.90
2017-11-15T03:24:54.533Z,88.60
2017-11-15T03:27:22.053Z,88.50
2017-11-15T03:29:50.410Z,88.80
2017-11-15T03:32:18.745Z,89.50
2017-11-15T03:34:46.312Z,89.40
2017-11-15T03:37:13.902Z,90.40
2017-11-15T03:39:41.477Z,91.10
2017-11-15T03:42:08.993Z,90.10
2017-11-15T03:44:36.545Z,89.70
2017-11-15T03:47:04.122Z,89.40
2017-11-15T03:49:31.684Z,90.10
2017-11-15T03:51:59.384Z,89.50
2017-11-15T03:54:26.959Z,91.50
2017-11-15T03:56:54.570Z,92.10
2017-11-15T03:59:22.101Z,91.00
2017-11-15T04:01:49.650Z,91.10
2017-11-15T04:04:17.188Z,90.40
2017-11-15T04:06:44.761Z,89.90
2017-11-15T04:09:12.297Z,89.50
2017-11-15T04:11:39.859Z,89.30
2017-11-15T04:14:07.417Z,89.80
2017-11-15T04:16:35.727Z,90.90
2017-11-15T04:19:03.273Z,90.90
2017-11-15T04:21:30.788Z,91.50
2017-11-15T04:23:58.370Z,91.30
2017-11-15T04:26:25.904Z,91.10
2017-11-15T04:28:53.405Z,92.00
2017-11-15T04:31:20.984Z,92.30
2017-11-15T04:33:49.268Z,92.60
2017-11-15T04:36:17.551Z,92.60
2017-11-15T04:38:45.892Z,93.20
2017-11-15T04:41:13.547Z,93.20
2017-11-15T04:43:41.085Z,94.60
2017-11-15T04:46:08.650Z,94.40
2017-11-15T04:48:36.163Z,94.20
2017-11-15T04:51:03.778Z,94.00
2017-11-15T04:53:32.670Z,93.30
2017-11-15T04:56:00.246Z,92.30
2017-11-15T04:58:27.789Z,92.20
2017-11-15T05:00:56.110Z,91.60
2017-11-15T05:03:23.645Z,91.60
2017-11-15T05:05:51.165Z,91.20
2017-11-15T05:08:18.860Z,90.70
2017-11-15T05:10:46.430Z,90.70
2017-11-15T05:13:13.967Z,91.30
2017-11-15T05:15:41.531Z,92.10
2017-11-15T05:18:09.057Z,90.90
2017-11-15T05:20:36.585Z,91.20
2017-11-15T05:23:04.150Z,91.70
2017-11-15T05:25:32.424Z,91.60
2017-11-15T05:28:00.743Z,92.50
2017-11-15T05:30:28.263Z,92.40
2017-11-15T05:32:55.821Z,93.30
2017-11-15T05:35:23.350Z,93.10
2017-11-15T05:37:50.869Z,93.50
2017-11-15T05:40:19.198Z,93.60
2017-11-15T05:42:46.699Z,93.50
2017-11-15T05:45:14.316Z,92.70
2017-11-15T05:47:41.837Z,91.70
2017-11-15T05:50:09.395Z,91.20
2017-11-15T05:52:37.018Z,91.20
2017-11-15T05:55:04.682Z,90.40
2017-11-15T05:57:32.236Z,89.70
2017-11-15T05:59:59.758Z,90.60
2017-11-15T06:02:27.308Z,92.90
2017-11-15T06:04:54.829Z,95.60
2017-11-15T06:07:22.417Z,95.90
2017-11-15T06:09:50.030Z,96.20
2017-11-15T06:12:17.603Z,95.40
2017-11-15T06:14:45.139Z,95.30
2017-11-15T06:17:12.648Z,95.90
2017-11-15T06:19:40.280Z,96.00
2017-11-15T06:22:08.582Z,94.90
2017-11-15T06:24:36.068Z,94.80
2017-11-15T06:27:03.714Z,94.00
2017-11-15T06:29:31.170Z,93.80
2017-11-15T06:31:58.817Z,94.10
2017-11-15T06:34:27.124Z,93.20
2017-11-15T06:36:54.685Z,93.10
2017-11-15T06:39:22.116Z,92.40
2017-11-15T06:41:49.661Z,91.80
2017-11-15T06:44:17.243Z,91.90
2017-11-15T06:46:44.825Z,91.70
2017-11-15T06:49:12.337Z,91.50
2017-11-15T06:51:39.904Z,91.80
2017-11-15T06:54:07.486Z,92.30
2017-11-15T06:56:35.032Z,92.10
2017-11-15T06:59:02.555Z,91.50
2017-11-15T07:01:30.866Z,91.50
2017-11-15T07:03:58.376Z,91.50
2017-11-15T07:06:25.904Z,92.80
2017-11-15T07:08:53.461Z,92.50
2017-11-15T07:11:20.973Z,93.20
2017-11-15T07:13:48.502Z,93.40
2017-11-15T07:16:16.129Z,92.80
2017-11-15T07:18:44.412Z,93.10
2017-11-15T07:21:11.960Z,93.10
2017-11-15T07:23:39.519Z,93.20
2017-11-15T07:26:07.104Z,93.00
2017-11-15T07:28:35.396Z,91.20
2017-11-15T07:31:02.935Z,91.10
2017-11-15T07:33:31.304Z,90.10
2017-11-15T07:35:58.820Z,90.10
2017-11-15T07:38:26.354Z,89.30
2017-11-15T07:40:54.639Z,89.50
2017-11-15T07:43:22.197Z,89.50
2017-11-15T07:45:49.745Z,88.90
2017-11-15T07:48:17.250Z,88.90
2017-11-15T07:50:44.834Z,88.60
2017-11-15T07:53:12.331Z,88.90
2017-11-15T07:55:39.903Z,89.90
2017-11-15T07:58:07.431Z,90.30
2017-11-15T08:00:34.944Z,90.10
2017-11-15T08:03:02.474Z,90.60
2017-11-15T08:05:30.124Z,89.80
2017-11-15T08:07:59.605Z,90.00
2017-11-15T08:10:27.428Z,90.50
2017-11-15T08:12:55.775Z,89.70
2017-11-15T08:15:23.287Z,89.60
2017-11-15T08:17:50.813Z,90.00
2017-11-15T08:20:18.379Z,89.20
2017-11-15T08:22:45.887Z,91.00
2017-11-15T08:25:13.395Z,89.80
2017-11-15T08:27:40.965Z,88.70
2017-11-15T08:30:08.549Z,88.40
2017-11-15T08:32:36.120Z,89.60
2017-11-15T08:35:03.695Z,88.00
2017-11-15T08:37:31.280Z,85.20
2017-11-15T08:39:58.833Z,85.10
2017-11-15T08:42:26.419Z,85.80
2017-11-15T08:44:54.741Z,84.30
2017-11-15T08:47:22.270Z,84.30
2017-11-15T08:49:50.704Z,81.60
2017-11-15T08:52:18.227Z,81.60
2017-11-15T08:54:45.789Z,79.40
2017-11-15T08:57:13.355Z,79.00
2017-11-15T08:59:40.905Z,77.20
2017-11-15T09:02:08.488Z,77.30
2017-11-15T09:04:35.996Z,77.00
2017-11-15T09:07:03.531Z,77.20
2017-11-15T09:09:31.070Z,77.40
2017-11-15T09:11:59.370Z,78.70
2017-11-15T09:14:27.279Z,78.60
2017-11-15T09:16:54.823Z,74.70
2017-11-15T09:19:22.347Z,73.80
2017-11-15T09:21:49.870Z,75.60
2017-11-15T09:24:17.509Z,77.60
2017-11-15T09:26:45.058Z,76.80
2017-11-15T09:29:12.615Z,77.80
2017-11-15T09:31:40.911Z,75.10
2017-11-15T09:34:08.579Z,74.90
2017-11-15T09:36:36.133Z,75.60
2017-11-15T09:39:03.751Z,77.40
2017-11-15T09:41:31.318Z,76.80
2017-11-15T09:43:58.895Z,76.00
2017-11-15T09:46:26.423Z,75.10
2017-11-15T09:48:53.941Z,75.20
2017-11-15T09:51:21.639Z,74.00
2017-11-15T09:53:49.154Z,75.10
2017-11-15T09:56:17.509Z,72.70
2017-11-15T09:58:45.063Z,73.00
2017-11-15T10:01:12.625Z,73.10
2017-11-15T10:03:40.626Z,71.70
2017-11-15T10:06:08.245Z,72.20
2017-11-15T10:08:35.797Z,72.10
2017-11-15T10:11:03.360Z,73.20
2017-11-15T10:13:31.646Z,70.20
2017-11-15T10:15:59.994Z,70.00
2017-11-15T10:18:27.576Z,69.90
2017-11-15T10:20:55.120Z,70.30
2017-11-15T10:23:22.677Z,68.90
2017-11-15T10:25:50.225Z,68.40
2017-11-15T10:28:18.633Z,66.70
2017-11-15T10:30:46.268Z,65.30
2017-11-15T10:33:13.795Z,65.60
2017-11-15T10:35:42.074Z,60.30
2017-11-15T10:38:10.436Z,60.80
2017-11-15T10:40:38.091Z,60.70
2017-11-15T10:43:05.631Z,63.60
2017-11-15T10:45:33.167Z,66.20
2017-11-15T10:48:00.693Z,64.80
2017-11-15T10:50:28.232Z,63.40
2017-11-15T10:52:55.786Z,63.10
2017-11-15T10:55:23.354Z,64.60
2017-11-15T10:57:50.907Z,63.20
2017-11-15T11:00:19.719Z,64.40
2017-11-15T11:02:47.296Z,65.50
2017-11-15T11:05:14.953Z,64.40
2017-11-15T11:07:42.533Z,66.40
2017-11-15T11:10:10.106Z,65.30
2017-11-15T11:12:37.773Z,63.60
2017-11-15T11:15:05.369Z,63.70
2017-11-15T11:17:33.739Z,60.50
2017-11-15T11:20:01.321Z,61.30
2017-11-15T11:22:29.673Z,64.20
2017-11-15T11:24:57.229Z,64.10
2017-11-15T11:27:24.745Z,65.90
2017-11-15T11:29:52.292Z,67.10
2017-11-15T11:32:20.583Z,66.80
2017-11-15T11:34:48.909Z,65.80
2017-11-15T11:37:16.474Z,65.60
2017-11-15T11:39:44.029Z,64.20
2017-11-15T11:42:11.614Z,63.10
2017-11-15T11:44:39.151Z,64.50
2017-11-15T11:47:06.665Z,61.20
2017-11-15T11:49:34.222Z,64.00
2017-11-15T11:52:01.789Z,64.00
2017-11-15T11:54:29.364Z,62.80
2017-11-15T11:56:56.967Z,60.80
2017-11-15T11:59:24.605Z,59.80
2017-11-15T12:01:52.133Z,61.10
2017-11-15T12:04:19.731Z,62.40
2017-11-15T12:06:47.277Z,60.80
2017-11-15T12:09:14.827Z,61.60
2017-11-15T12:11:42.401Z,61.90
2017-11-15T12:14:09.942Z,64.50
2017-11-15T12:16:37.577Z,65.80
2017-11-15T12:19:05.211Z,62.10
2017-11-15T12:21:32.726Z,61.70
2017-11-15T12:24:00.264Z,62.80
2017-11-15T12:26:27.823Z,66.00
2017-11-15T12:28:55.330Z,67.20
2017-11-15T12:31:22.933Z,63.90
2017-11-15T12:33:50.580Z,61.50
2017-11-15T12:36:18.106Z,64.00
2017-11-15T12:38:45.664Z,64.20
2017-11-15T12:41:13.241Z,63.10
2017-11-15T12:43:40.827Z,64.50
2017-11-15T12:46:08.365Z,65.60
2017-11-15T12:48:35.939Z,64.50
2017-11-15T12:51:03.517Z,65.40
2017-11-15T12:53:31.092Z,64.30
2017-11-15T12:55:58.700Z,63.40
2017-11-15T12:58:26.259Z,63.80
2017-11-15T13:00:53.778Z,64.00
2017-11-15T13:03:21.301Z,62.60
2017-11-15T13:05:49.613Z,61.90
2017-11-15T13:08:17.191Z,61.80
2017-11-15T13:10:44.753Z,62.40
2017-11-15T13:13:12.309Z,63.40
2017-11-15T13:15:39.906Z,63.80
2017-11-15T13:18:07.465Z,64.40
2017-11-15T13:20:35.065Z,63.20
2017-11-15T13:23:03.367Z,62.20
2017-11-15T13:25:30.931Z,62.20
2017-11-15T13:27:58.480Z,62.50
2017-11-15T13:30:26.839Z,60.30
2017-11-15T13:32:54.707Z,60.30
2017-11-15T13:35:22.249Z,58.70
2017-11-15T13:37:49.801Z,59.40
2017-11-15T13:40:17.401Z,60.90
2017-11-15T13:42:44.973Z,60.80
2017-11-15T13:45:12.490Z,61.20
2017-11-15T13:47:40.025Z,60.80
2017-11-15T13:50:08.353Z,60.10
2017-11-15T13:52:35.994Z,60.10
2017-11-15T13:55:03.638Z,60.70
2017-11-15T13:57:31.919Z,58.60
2017-11-15T13:59:59.456Z,58.60
2017-11-15T14:02:26.967Z,56.00
2017-11-15T14:04:54.501Z,57.00
2017-11-15T14:07:22.098Z,58.10
2017-11-15T14:09:49.613Z,58.10
2017-11-15T14:12:17.170Z,58.60
2017-11-15T14:14:44.740Z,59.10
2017-11-15T14:17:12.306Z,58.90
2017-11-15T14:19:39.887Z,59.60
2017-11-15T14:22:07.437Z,60.10
2017-11-15T14:24:34.983Z,61.60
2017-11-15T14:27:02.539Z,62.20
2017-11-15T14:29:30.110Z,61.30
2017-11-15T14:31:57.644Z,62.80
2017-11-15T14:34:25.222Z,64.50
2017-11-15T14:36:52.862Z,65.70
2017-11-15T14:39:21.254Z,64.70
2017-11-15T14:41:48.785Z,64.60
2017-11-15T14:44:17.189Z,66.60
2017-11-15T14:46:44.762Z,66.50
2017-11-15T14:49:12.281Z,66.80
2017-11-15T14:51:39.874Z,67.90
2017-11-15T14:54:07.425Z,67.80
2017-11-15T14:56:34.991Z,69.90
2017-11-15T14:59:04.473Z,70.90
2017-11-15T15:01:32.034Z,70.70
2017-11-15T15:03:59.568Z,72.00
2017-11-15T15:06:28.207Z,72.40
2017-11-15T15:08:55.744Z,73.40
2017-11-15T15:11:23.297Z,74.10
2017-11-15T15:13:50.857Z,74.80
2017-11-15T15:16:23.764Z,76.20
2017-11-15T15:18:51.336Z,75.10
2017-11-15T15:21:18.867Z,76.40
2017-11-15T15:23:46.380Z,77.60
2017-11-15T15:26:14.734Z,77.40
2017-11-15T15:28:42.279Z,77.20
2017-11-15T15:31:09.889Z,77.40
2017-11-15T15:33:37.391Z,77.40
2017-11-15T15:36:05.661Z,78.50
2017-11-15T15:38:33.761Z,78.40
2017-11-15T15:41:02.097Z,78.50
2017-11-15T15:43:29.670Z,78.50
2017-11-15T15:45:57.293Z,79.30
2017-11-15T15:48:24.897Z,79.60
2017-11-15T15:50:53.373Z,80.10
2017-11-15T15:53:21.113Z,80.10
2017-11-15T15:55:48.721Z,80.50
2017-11-15T15:58:16.309Z,80.70
2017-11-15T16:00:50.460Z,81.40
2017-11-15T16:03:17.969Z,81.50
2017-11-15T16:05:45.468Z,81.90
2017-11-15T16:08:13.775Z,82.10
2017-11-15T16:10:41.276Z,81.90
2017-11-15T16:13:08.821Z,82.70
2017-11-15T16:15:36.318Z,82.60
2017-11-15T16:18:03.837Z,83.10
2017-11-15T16:20:31.382Z,84.00
2017-11-15T16:22:59.084Z,84.10
2017-11-15T16:25:26.731Z,84.40
2017-11-15T22:00:41.013Z,92.50
2017-11-15T22:03:08.860Z,92.60
2017-11-15T22:05:36.857Z,92.20
2017-11-15T22:08:04.621Z,91.50
2017-11-15T22:10:32.569Z,91.20
2017-11-15T22:13:00.110Z,91.30
2017-11-15T22:15:28.352Z,91.60
2017-11-15T22:17:55.936Z,91.60
2017-11-15T22:20:23.483Z,91.90
2017-11-15T22:22:50.980Z,91.10
2017-11-15T22:25:19.309Z,90.90
2017-11-15T22:27:46.856Z,90.90
2017-11-15T22:30:14.389Z,90.40
2017-11-15T22:32:42.661Z,90.90
2017-11-15T22:35:10.964Z,92.20
2017-11-15T22:37:38.473Z,91.40
2017-11-15T22:40:06.016Z,91.20
2017-11-15T22:42:33.528Z,90.30
2017-11-15T22:45:01.063Z,89.80
2017-11-15T22:47:28.618Z,89.40
2017-11-15T22:49:56.143Z,90.00
2017-11-15T22:52:23.660Z,89.10
2017-11-15T22:54:51.156Z,88.20
2017-11-15T22:57:19.493Z,88.00
2017-11-15T22:59:46.980Z,87.80
2017-11-15T23:02:14.486Z,88.60
2017-11-15T23:04:42.028Z,88.70
2017-11-15T23:07:10.408Z,89.40
2017-11-15T23:09:38.675Z,90.00
2017-11-15T23:12:06.364Z,90.00
2017-11-15T23:14:34.736Z,90.80
2017-11-15T23:17:03.019Z,91.00
2017-11-15T23:19:31.283Z,91.80
2017-11-15T23:21:58.853Z,91.60
2017-11-15T23:24:26.340Z,92.70
2017-11-15T23:26:54.615Z,92.10
2017-11-15T23:29:22.908Z,93.20
2017-11-15T23:31:50.442Z,93.20
2017-11-15T23:34:17.948Z,92.80
2017-11-15T23:36:45.515Z,91.50
2017-11-15T23:39:13.012Z,91.00
2017-11-15T23:41:40.539Z,91.70
2017-11-15T23:44:08.071Z,91.20
2017-11-15T23:46:36.321Z,90.50
2017-11-15T23:49:03.855Z,90.40
2017-11-15T23:51:31.349Z,91.20
2017-11-15T23:53:58.895Z,91.30
2017-11-15T23:56:26.408Z,91.00
2017-11-15T23:58:54.684Z,91.40
